CheckWX is a tool to help pilots better visualize weather data.  It is not intended as a substitute for an official pre-flight weather briefing.

17:59:31 UTC

KEST METAR
Estherville Municipal Airport
Estherville, Iowa, USA
Current

39 mins ago

KEST 171721Z AUTO 03016KT 1 1/4SM -SN BR BKN026 OVC033 M08/M10 A2991 RMK AO2 P0000 T10781100
Observed
Feb-17 @ 17:21 UTC
Wind
  • 030° at 16 KTS
Visibility
1 1/4 SM
Flight Rules
IFR
Conditions
Light Snow, Mist
Cloud Levels
  • Broken at 2,600' AGL
  • Overcast at 3,300' AGL
Temperature
-8°C / 18°F
Dewpoint
-10°C / 14°F
Humidity
86%
Altimeter
29.91" Hg
Pressure
1012.92 hPa
Current Rain
0.01"
Previous

1 hour ago

KEST 171652Z AUTO 03013KT 1 1/2SM -SN BR BKN033 OVC042 M08/M10 A2990 RMK AO2 SLP149 P0000 T10781100
Observed
Feb-17 @ 16:52 UTC
Wind
  • 030° at 13 KTS
Visibility
1 1/2 SM
Flight Rules
IFR
Conditions
Light Snow, Mist
Cloud Levels
  • Broken at 3,300' AGL
  • Overcast at 4,200' AGL
Temperature
-8°C / 18°F
Dewpoint
-10°C / 14°F
Humidity
86%
Altimeter
29.9" Hg
Pressure
1014.9 hPa
Current Rain
0.01"
Previous

1 hour ago

KEST 171634Z AUTO 03014KT 2SM -SN BR OVC035 M08/M10 A2990 RMK AO2 P0000 T10831100
Observed
Feb-17 @ 16:34 UTC
Wind
  • 030° at 14 KTS
Visibility
2 SM
Flight Rules
IFR
Conditions
Light Snow, Mist
Cloud Levels
  • Overcast at 3,500' AGL
Temperature
-8°C / 18°F
Dewpoint
-10°C / 14°F
Humidity
86%
Altimeter
29.9" Hg
Pressure
1012.52 hPa
Current Rain
0.01"